createdAt,value
2023-01-26T00:01:10.244Z,6.83
2023-01-26T00:03:37.199Z,6.84
2023-01-26T00:06:08.884Z,6.84
2023-01-26T00:08:37.505Z,6.88
2023-01-26T00:11:06.224Z,6.85
2023-01-26T00:13:33.499Z,6.83
2023-01-26T00:16:00.653Z,6.84
2023-01-26T00:18:27.308Z,6.81
2023-01-26T00:20:58.305Z,6.81
2023-01-26T00:23:25.657Z,6.78
2023-01-26T00:25:52.311Z,6.78
2023-01-26T00:28:18.963Z,6.74
2023-01-26T00:30:45.805Z,6.70
2023-01-26T00:33:12.442Z,6.73
2023-01-26T00:35:39.200Z,6.71
2023-01-26T00:38:05.764Z,6.73
2023-01-26T00:40:32.418Z,6.73
2023-01-26T00:42:59.356Z,6.74
2023-01-26T00:45:25.931Z,6.73
2023-01-26T00:47:52.548Z,6.74
2023-01-26T00:50:19.165Z,6.74
2023-01-26T00:52:45.785Z,6.68
2023-01-26T00:55:12.393Z,6.67
2023-01-26T00:57:39.339Z,6.66
2023-01-26T01:00:06.737Z,6.66
2023-01-26T01:02:33.349Z,6.64
2023-01-26T01:04:59.933Z,6.61
2023-01-26T01:07:26.491Z,6.63
2023-01-26T01:09:53.194Z,6.64
2023-01-26T01:12:19.770Z,6.63
2023-01-26T01:14:46.373Z,6.58
2023-01-26T01:17:13.005Z,6.57
2023-01-26T01:19:40.933Z,6.56
2023-01-26T01:22:07.567Z,6.51
2023-01-26T01:24:37.592Z,6.53
2023-01-26T01:27:04.350Z,6.46
2023-01-26T01:29:30.978Z,6.47
2023-01-26T01:31:57.601Z,6.43
2023-01-26T01:34:24.355Z,6.46
2023-01-26T01:36:51.034Z,6.51
2023-01-26T01:41:43.127Z,6.61
2023-01-26T01:44:24.275Z,6.56
2023-01-26T01:47:00.320Z,6.57
2023-01-26T01:49:32.378Z,6.61
2023-01-26T01:52:17.982Z,6.64
2023-01-26T01:54:48.942Z,6.60
2023-01-26T01:57:28.581Z,6.61
2023-01-26T02:00:01.266Z,6.58
2023-01-26T02:02:28.259Z,6.61
2023-01-26T02:04:59.477Z,6.61
2023-01-26T02:07:26.588Z,6.57
2023-01-26T02:10:12.040Z,6.58
2023-01-26T02:12:38.886Z,6.64
2023-01-26T02:15:06.045Z,6.67
2023-01-26T02:17:32.711Z,6.67
2023-01-26T02:20:16.733Z,6.68
2023-01-26T02:22:57.608Z,6.71
2023-01-26T02:25:54.321Z,6.70
2023-01-26T02:28:26.795Z,6.64
2023-01-26T02:30:54.870Z,6.63
2023-01-26T02:33:29.747Z,6.67
2023-01-26T02:35:56.378Z,6.70
2023-01-26T02:38:25.692Z,6.64
2023-01-26T02:41:40.214Z,6.63
2023-01-26T02:44:09.965Z,6.57
2023-01-26T02:46:36.664Z,6.57
2023-01-26T02:49:22.026Z,6.54
2023-01-26T02:51:48.634Z,6.46
2023-01-26T02:54:35.393Z,6.50
2023-01-26T02:57:02.362Z,6.58
2023-01-26T02:59:28.955Z,6.63
2023-01-26T03:01:57.185Z,6.61
2023-01-26T03:04:24.058Z,6.67
2023-01-26T03:06:50.682Z,6.73
2023-01-26T03:09:17.240Z,6.68
2023-01-26T03:11:43.922Z,6.67
2023-01-26T03:14:15.122Z,6.74
2023-01-26T03:16:42.190Z,6.80
2023-01-26T03:19:30.512Z,6.81
2023-01-26T03:22:15.592Z,6.85
2023-01-26T03:25:00.726Z,6.84
2023-01-26T03:27:27.915Z,6.84
2023-01-26T03:29:56.311Z,6.83
2023-01-26T03:32:23.657Z,6.81
2023-01-26T03:34:50.215Z,6.83
2023-01-26T03:37:22.109Z,6.87
2023-01-26T03:40:11.694Z,6.89
2023-01-26T03:42:57.053Z,6.85
2023-01-26T03:45:41.866Z,6.85
2023-01-26T03:48:30.136Z,6.92
2023-01-26T03:51:15.790Z,6.83
2023-01-26T03:54:02.121Z,6.83
2023-01-26T03:56:32.859Z,6.83
2023-01-26T03:59:09.416Z,6.83
2023-01-26T04:01:39.000Z,6.87
2023-01-26T04:04:25.815Z,6.84
2023-01-26T04:07:11.032Z,6.77
2023-01-26T04:09:39.679Z,6.74
2023-01-26T04:12:07.031Z,6.73
2023-01-26T04:14:52.122Z,6.78
2023-01-26T04:17:38.093Z,6.73
2023-01-26T04:20:24.897Z,6.70
2023-01-26T04:22:51.516Z,6.71
2023-01-26T04:25:21.166Z,6.66
2023-01-26T04:27:47.753Z,6.58
2023-01-26T04:30:15.983Z,6.57
2023-01-26T04:32:42.954Z,6.54
2023-01-26T04:35:10.329Z,6.54
2023-01-26T04:37:37.286Z,6.46
2023-01-26T04:40:04.482Z,6.41
2023-01-26T04:42:31.394Z,6.32
2023-01-26T04:44:58.217Z,6.29
2023-01-26T04:47:24.814Z,6.34
2023-01-26T04:49:51.430Z,6.28
2023-01-26T04:52:17.998Z,6.22
2023-01-26T04:54:44.551Z,6.26
2023-01-26T04:57:11.381Z,6.36
2023-01-26T04:59:38.375Z,6.37
2023-01-26T05:02:05.162Z,6.39
2023-01-26T05:04:32.246Z,6.43
2023-01-26T05:06:58.927Z,6.37
2023-01-26T05:09:25.538Z,6.43
2023-01-26T05:11:52.114Z,6.47
2023-01-26T05:14:18.686Z,6.47
2023-01-26T05:16:45.293Z,6.40
2023-01-26T05:19:12.004Z,6.40
2023-01-26T05:21:38.563Z,6.37
2023-01-26T05:24:05.530Z,6.34
2023-01-26T05:26:32.230Z,6.37
2023-01-26T05:28:58.851Z,6.33
2023-01-26T05:31:25.482Z,6.33
2023-01-26T05:33:52.187Z,6.28
2023-01-26T05:36:18.743Z,6.28
2023-01-26T05:38:45.346Z,6.29
2023-01-26T05:41:11.990Z,6.33
2023-01-26T05:43:38.559Z,6.29
2023-01-26T05:46:05.864Z,6.25
2023-01-26T05:48:32.485Z,6.25
2023-01-26T05:50:59.145Z,6.28
2023-01-26T05:53:25.813Z,6.26
2023-01-26T05:55:52.551Z,6.23
2023-01-26T05:58:19.488Z,6.28
2023-01-26T06:00:46.114Z,6.33
2023-01-26T06:03:12.838Z,6.33
2023-01-26T06:05:39.450Z,6.37
2023-01-26T06:08:06.073Z,6.46
2023-01-26T06:10:32.672Z,6.47
2023-01-26T06:13:00.288Z,6.49
2023-01-26T06:15:26.915Z,6.53
2023-01-26T06:17:53.509Z,6.49
2023-01-26T06:20:20.074Z,6.43
2023-01-26T06:22:46.621Z,6.51
2023-01-26T06:25:13.266Z,6.46
2023-01-26T06:27:42.221Z,6.49
2023-01-26T06:30:10.713Z,6.43
2023-01-26T06:32:37.758Z,6.43
2023-01-26T06:35:07.166Z,6.41
2023-01-26T06:37:33.973Z,6.40
2023-01-26T06:40:00.967Z,6.41
2023-01-26T06:42:27.620Z,6.49
2023-01-26T06:44:54.236Z,6.53
2023-01-26T06:47:20.917Z,6.57
2023-01-26T06:49:47.481Z,6.56
2023-01-26T06:52:30.095Z,6.54
2023-01-26T06:54:59.604Z,6.57
2023-01-26T06:57:26.415Z,6.46
2023-01-26T06:59:53.058Z,6.43
2023-01-26T07:02:21.608Z,6.36
2023-01-26T07:04:49.930Z,6.36
2023-01-26T07:07:16.662Z,6.40
2023-01-26T07:09:43.263Z,6.36
2023-01-26T07:12:10.063Z,6.37
2023-01-26T07:14:36.755Z,6.43
2023-01-26T07:17:03.834Z,6.41
2023-01-26T07:19:31.487Z,6.39
2023-01-26T07:21:58.138Z,6.43
2023-01-26T07:24:25.290Z,6.49
2023-01-26T07:26:52.208Z,6.47
2023-01-26T07:29:18.887Z,6.49
2023-01-26T07:31:45.788Z,6.54
2023-01-26T07:34:12.957Z,6.54
2023-01-26T07:36:39.701Z,6.46
2023-01-26T07:39:08.525Z,6.53
2023-01-26T07:41:35.207Z,6.58
2023-01-26T07:44:02.120Z,6.63
2023-01-26T07:46:28.929Z,6.66
2023-01-26T07:48:56.079Z,6.66
2023-01-26T07:51:23.236Z,6.61
2023-01-26T07:53:50.109Z,6.68
2023-01-26T07:56:20.391Z,6.70
2023-01-26T07:58:51.993Z,6.74
2023-01-26T08:01:19.356Z,6.78
2023-01-26T08:03:46.111Z,6.81
2023-01-26T08:06:15.602Z,6.85
2023-01-26T08:08:43.284Z,6.87
2023-01-26T08:11:11.621Z,6.83
2023-01-26T08:13:38.848Z,6.83
2023-01-26T08:16:12.680Z,6.85
2023-01-26T08:18:44.636Z,6.83
2023-01-26T08:21:12.791Z,6.95
2023-01-26T08:23:39.396Z,6.98
2023-01-26T08:26:12.661Z,7.08
2023-01-26T08:28:40.072Z,7.16
2023-01-26T08:31:11.378Z,7.19
2023-01-26T08:33:39.984Z,7.20
2023-01-26T08:36:09.116Z,7.20
2023-01-26T08:38:35.806Z,7.23
2023-01-26T08:41:03.653Z,7.20
2023-01-26T08:43:30.248Z,7.18
2023-01-26T08:45:57.427Z,7.15
2023-01-26T08:48:24.749Z,7.19
2023-01-26T08:50:56.403Z,7.23
2023-01-26T08:53:24.293Z,7.18
2023-01-26T08:55:51.521Z,7.25
2023-01-26T08:58:20.480Z,7.22
2023-01-26T09:00:47.259Z,7.25
2023-01-26T09:03:14.068Z,7.26
2023-01-26T09:05:40.832Z,7.26
2023-01-26T09:08:09.202Z,7.18
2023-01-26T09:10:38.711Z,7.19
2023-01-26T09:13:05.729Z,7.26
2023-01-26T09:15:32.365Z,7.27
2023-01-26T09:18:00.893Z,7.33
2023-01-26T09:20:27.949Z,7.39
2023-01-26T09:22:54.821Z,7.42
2023-01-26T09:25:21.478Z,7.44
2023-01-26T09:27:48.126Z,7.50
2023-01-26T09:30:15.233Z,7.50
2023-01-26T09:32:41.905Z,7.53
2023-01-26T09:35:14.136Z,7.54
2023-01-26T09:37:42.895Z,7.57
2023-01-26T09:40:18.411Z,7.57
2023-01-26T09:42:59.419Z,7.59
2023-01-26T09:45:46.505Z,7.66
2023-01-26T09:48:33.329Z,7.60
2023-01-26T09:50:59.954Z,7.63
2023-01-26T09:53:39.785Z,7.61
2023-01-26T09:56:06.749Z,7.69
2023-01-26T09:58:40.223Z,7.70
2023-01-26T10:01:18.763Z,7.75
2023-01-26T10:03:56.198Z,7.78
2023-01-26T10:06:29.129Z,7.80
2023-01-26T10:09:00.749Z,7.80
2023-01-26T10:11:32.122Z,7.81
2023-01-26T10:14:14.333Z,7.77
2023-01-26T10:16:45.557Z,7.85
2023-01-26T10:19:23.593Z,7.84
2023-01-26T10:21:53.935Z,7.82
2023-01-26T10:24:23.268Z,7.81
2023-01-26T10:26:52.867Z,7.71
2023-01-26T10:29:20.733Z,7.70
2023-01-26T10:31:47.386Z,7.70
2023-01-26T10:34:17.786Z,7.74
2023-01-26T10:36:46.407Z,7.74
2023-01-26T10:39:15.724Z,7.80
2023-01-26T10:41:57.474Z,7.85
2023-01-26T10:44:37.344Z,7.89
2023-01-26T10:47:13.704Z,7.89
2023-01-26T10:49:40.493Z,7.80
2023-01-26T10:52:17.800Z,7.82
2023-01-26T10:54:46.067Z,7.80
2023-01-26T10:57:28.428Z,7.82
2023-01-26T11:00:07.962Z,7.81
2023-01-26T11:02:36.597Z,7.85
2023-01-26T11:05:09.356Z,7.89
2023-01-26T11:07:44.357Z,7.89
2023-01-26T11:10:32.279Z,7.84
2023-01-26T11:13:21.271Z,7.84
2023-01-26T11:15:50.419Z,7.87
2023-01-26T11:18:29.484Z,7.92
2023-01-26T11:21:24.147Z,7.87
2023-01-26T11:24:15.474Z,7.88
2023-01-26T11:27:24.019Z,7.87
2023-01-26T11:30:29.180Z,7.84
2023-01-26T11:33:45.256Z,7.74
2023-01-26T11:36:28.218Z,7.70
2023-01-26T11:39:22.426Z,7.69
2023-01-26T11:42:31.728Z,7.67
2023-01-26T11:45:05.985Z,7.66
2023-01-26T11:47:50.410Z,7.69
2023-01-26T11:50:33.070Z,7.63
2023-01-26T11:53:18.180Z,7.59
2023-01-26T11:55:47.543Z,7.63
2023-01-26T11:58:41.110Z,7.67
2023-01-26T12:01:18.611Z,7.74
2023-01-26T12:03:51.165Z,7.82
2023-01-26T12:06:28.112Z,7.94
2023-01-26T12:09:01.781Z,8.01
2023-01-26T12:11:35.773Z,8.10
2023-01-26T12:14:29.967Z,8.18
2023-01-26T12:17:18.344Z,8.26
2023-01-26T12:20:04.402Z,8.32
2023-01-26T12:22:51.002Z,8.37
2023-01-26T12:25:37.937Z,8.40
2023-01-26T12:28:25.588Z,8.42
2023-01-26T12:30:55.762Z,8.43
2023-01-26T12:33:22.658Z,8.44
2023-01-26T12:35:55.656Z,8.42
2023-01-26T12:38:43.025Z,8.33
2023-01-26T12:41:37.738Z,8.37
2023-01-26T12:44:13.494Z,8.42
2023-01-26T12:46:49.121Z,8.46
2023-01-26T12:49:42.164Z,8.39
2023-01-26T12:52:13.648Z,8.43
2023-01-26T12:54:53.703Z,8.46
2023-01-26T12:57:23.834Z,8.52
2023-01-26T12:59:52.849Z,8.56
2023-01-26T13:02:36.785Z,8.60
2023-01-26T13:05:04.993Z,8.53
2023-01-26T13:07:40.775Z,8.52
2023-01-26T13:10:09.517Z,8.53
2023-01-26T13:12:46.748Z,8.56
2023-01-26T13:15:19.119Z,8.56
2023-01-26T13:17:51.821Z,8.42
2023-01-26T13:20:45.575Z,8.40
2023-01-26T13:23:36.803Z,8.40
2023-01-26T13:26:19.939Z,8.33
2023-01-26T13:28:48.802Z,8.29
2023-01-26T13:31:31.755Z,8.21
2023-01-26T13:34:08.330Z,8.24
2023-01-26T13:36:38.369Z,8.29
2023-01-26T13:39:19.123Z,8.30
2023-01-26T13:41:47.813Z,8.35
2023-01-26T13:44:23.830Z,8.37
2023-01-26T13:47:00.057Z,8.42
2023-01-26T13:49:41.516Z,8.42
2023-01-26T13:52:41.683Z,8.37
2023-01-26T13:55:22.609Z,8.37
2023-01-26T13:57:49.676Z,8.35
2023-01-26T14:00:17.150Z,8.32
2023-01-26T14:02:49.869Z,8.33
2023-01-26T14:05:23.293Z,8.33
2023-01-26T14:07:50.210Z,8.35
2023-01-26T14:10:20.023Z,8.39
2023-01-26T14:12:51.857Z,8.40
2023-01-26T14:15:29.149Z,8.47
2023-01-26T14:17:58.572Z,8.49
2023-01-26T14:20:27.175Z,8.54
2023-01-26T14:23:13.869Z,8.56
2023-01-26T14:25:42.414Z,8.59
2023-01-26T14:28:15.855Z,8.65
2023-01-26T14:30:43.517Z,8.68
2023-01-26T14:33:16.551Z,8.61
2023-01-26T14:35:55.062Z,8.63
2023-01-26T14:38:21.843Z,8.64
2023-01-26T14:40:55.496Z,8.65
2023-01-26T14:43:23.518Z,8.67
2023-01-26T14:46:01.477Z,8.60
2023-01-26T14:48:52.982Z,8.60
2023-01-26T14:51:23.003Z,8.59
2023-01-26T14:53:59.069Z,8.57
2023-01-26T14:56:38.738Z,8.57
2023-01-26T14:59:07.810Z,8.57
2023-01-26T15:01:34.535Z,8.57
2023-01-26T15:04:15.664Z,8.54
2023-01-26T15:06:42.342Z,8.44
2023-01-26T15:09:26.981Z,8.33
2023-01-26T15:12:17.273Z,8.37
2023-01-26T15:14:47.336Z,8.29
2023-01-26T15:17:44.834Z,8.29
2023-01-26T15:20:31.718Z,8.32
2023-01-26T15:22:58.440Z,8.37
2023-01-26T15:25:27.385Z,8.40
2023-01-26T15:27:58.820Z,8.44
2023-01-26T15:30:34.566Z,8.39
2023-01-26T15:33:02.045Z,8.39
2023-01-26T15:35:33.874Z,8.42
2023-01-26T15:38:11.935Z,8.42
2023-01-26T15:40:39.400Z,8.43
2023-01-26T15:43:12.490Z,8.44
2023-01-26T15:45:43.555Z,8.43
2023-01-26T15:48:10.186Z,8.44
2023-01-26T15:50:36.826Z,8.44
2023-01-26T15:53:03.459Z,8.46
2023-01-26T15:55:32.664Z,8.47
2023-01-26T15:57:59.472Z,8.44
2023-01-26T16:00:26.183Z,8.50
2023-01-26T16:02:52.896Z,8.47
2023-01-26T16:05:22.763Z,8.47
2023-01-26T16:07:49.390Z,8.47
2023-01-26T16:10:18.123Z,8.50
2023-01-26T16:12:47.328Z,8.57
2023-01-26T16:15:42.200Z,8.56
2023-01-26T16:18:10.073Z,8.54
2023-01-26T16:20:39.582Z,8.56
2023-01-26T16:23:13.672Z,8.56
2023-01-26T16:25:40.348Z,8.52
2023-01-26T16:28:06.927Z,8.52
2023-01-26T16:30:33.748Z,8.50
2023-01-26T16:33:01.229Z,8.46
2023-01-26T16:35:29.747Z,8.42
2023-01-26T16:37:56.390Z,8.40
2023-01-26T16:40:23.037Z,8.42
2023-01-26T16:42:54.130Z,8.39
2023-01-26T16:45:28.831Z,8.33
2023-01-26T16:47:57.245Z,8.26
2023-01-26T16:50:25.456Z,8.21
2023-01-26T16:52:53.070Z,8.19
2023-01-26T16:55:20.185Z,8.19
2023-01-26T16:57:49.926Z,8.19
2023-01-26T17:00:19.485Z,8.19
2023-01-26T17:02:51.972Z,8.16
2023-01-26T17:05:22.075Z,8.18
2023-01-26T17:07:50.940Z,8.19
2023-01-26T17:10:18.189Z,8.22
2023-01-26T17:12:44.926Z,8.25
2023-01-26T17:15:12.567Z,8.21
2023-01-26T17:17:39.853Z,8.21
2023-01-26T17:20:18.425Z,8.21
2023-01-26T17:22:46.290Z,8.26
2023-01-26T17:25:16.357Z,8.25
2023-01-26T17:27:43.668Z,8.24
2023-01-26T17:30:10.793Z,8.18
2023-01-26T17:32:37.508Z,8.15
2023-01-26T17:35:04.242Z,8.10
2023-01-26T17:37:31.653Z,8.06
2023-01-26T17:39:58.375Z,8.01
2023-01-26T17:42:25.685Z,7.94
2023-01-26T17:44:52.550Z,7.88
2023-01-26T17:47:19.376Z,7.82
2023-01-26T17:49:46.087Z,7.82
2023-01-26T17:52:14.462Z,7.80
2023-01-26T17:54:41.449Z,7.80
2023-01-26T17:57:08.611Z,7.77
2023-01-26T17:59:35.361Z,7.77
2023-01-26T18:02:02.577Z,7.73
2023-01-26T18:04:31.334Z,7.73
2023-01-26T18:06:58.157Z,7.70
2023-01-26T18:09:25.117Z,7.67
2023-01-26T18:11:51.749Z,7.67
2023-01-26T18:14:18.523Z,7.64
2023-01-26T18:16:45.213Z,7.63
2023-01-26T18:19:11.849Z,7.57
2023-01-26T18:21:38.629Z,7.53
2023-01-26T18:24:06.062Z,7.47
2023-01-26T18:26:37.104Z,7.43
2023-01-26T18:29:05.760Z,7.36
2023-01-26T18:31:35.682Z,7.34
2023-01-26T18:34:04.081Z,7.37
2023-01-26T18:36:31.115Z,7.42
2023-01-26T18:39:00.389Z,7.43
2023-01-26T18:41:30.376Z,7.43
2023-01-26T18:43:58.540Z,7.42
2023-01-26T18:46:27.396Z,7.44
2023-01-26T18:48:54.960Z,7.40
2023-01-26T18:51:22.757Z,7.25
2023-01-26T18:53:49.639Z,7.23
2023-01-26T18:56:17.278Z,7.23
2023-01-26T18:58:44.538Z,7.23
2023-01-26T19:01:16.402Z,7.23
2023-01-26T19:03:47.444Z,7.30
2023-01-26T19:06:20.008Z,7.25
2023-01-26T19:08:51.964Z,7.25
2023-01-26T19:11:18.540Z,7.25
2023-01-26T19:13:46.347Z,7.25
2023-01-26T19:16:13.059Z,7.22
2023-01-26T19:18:39.742Z,7.19
2023-01-26T19:21:06.354Z,7.22
2023-01-26T19:23:34.117Z,7.22
2023-01-26T19:26:01.000Z,7.23
2023-01-26T19:28:27.765Z,7.25
2023-01-26T19:31:02.320Z,7.27
2023-01-26T19:33:29.197Z,7.26
2023-01-26T19:35:56.614Z,7.26
2023-01-26T19:38:24.223Z,7.25
2023-01-26T19:40:52.406Z,7.26
2023-01-26T19:43:20.141Z,7.23
2023-01-26T19:45:53.209Z,7.25
2023-01-26T19:48:27.573Z,7.23
2023-01-26T19:51:03.440Z,7.27
2023-01-26T19:53:31.503Z,7.29
2023-01-26T19:55:59.888Z,7.30
2023-01-26T19:58:27.897Z,7.30
2023-01-26T20:01:02.983Z,7.29
2023-01-26T20:03:29.789Z,7.27
2023-01-26T20:05:57.452Z,7.27
2023-01-26T20:08:25.346Z,7.27
2023-01-26T20:10:52.363Z,7.25
2023-01-26T20:13:19.537Z,7.26
2023-01-26T20:15:46.403Z,7.23
2023-01-26T20:18:13.081Z,7.25
2023-01-26T20:20:39.795Z,7.22
2023-01-26T20:23:07.612Z,7.20
2023-01-26T20:25:36.556Z,7.20
2023-01-26T20:28:03.728Z,7.16
2023-01-26T20:30:30.344Z,7.16
2023-01-26T20:32:57.203Z,7.16
2023-01-26T20:35:23.935Z,7.15
2023-01-26T20:37:50.536Z,7.13
2023-01-26T20:40:17.189Z,7.12
2023-01-26T20:42:43.912Z,7.13
2023-01-26T20:45:11.143Z,7.16
2023-01-26T20:47:39.312Z,7.13
2023-01-26T20:50:10.651Z,7.16
2023-01-26T20:52:37.569Z,7.18
2023-01-26T20:55:06.980Z,7.19
2023-01-26T20:57:34.175Z,7.19
2023-01-26T21:00:00.836Z,7.19
2023-01-26T21:02:27.652Z,7.13
2023-01-26T21:04:54.308Z,7.06
2023-01-26T21:07:21.770Z,7.04
2023-01-26T21:09:48.457Z,7.05
2023-01-26T21:12:15.011Z,7.02
2023-01-26T21:14:42.868Z,7.04
2023-01-26T21:17:11.037Z,7.04
2023-01-26T21:19:37.684Z,7.04
2023-01-26T21:22:04.619Z,7.06
2023-01-26T21:24:31.211Z,7.09
2023-01-26T21:26:57.819Z,7.04
2023-01-26T21:29:24.423Z,7.06
2023-01-26T21:31:52.293Z,7.05
2023-01-26T21:34:18.964Z,7.04
2023-01-26T21:36:45.569Z,7.04
2023-01-26T21:39:14.988Z,7.01
2023-01-26T21:41:56.653Z,6.89
2023-01-26T21:44:24.385Z,6.83
2023-01-26T21:46:54.059Z,6.80
2023-01-26T21:49:21.219Z,6.81
2023-01-26T21:52:06.783Z,6.78
2023-01-26T21:54:33.690Z,6.84
2023-01-26T21:57:01.621Z,6.74
2023-01-26T21:59:29.669Z,6.75
2023-01-26T22:01:58.235Z,6.74
2023-01-26T22:04:28.088Z,6.83
2023-01-26T22:06:55.816Z,6.85
2023-01-26T22:09:23.965Z,6.88
2023-01-26T22:11:51.493Z,6.95
2023-01-26T22:14:21.758Z,6.87
2023-01-26T22:16:48.751Z,6.83
2023-01-26T22:19:15.494Z,6.84
2023-01-26T22:21:42.205Z,6.87
2023-01-26T22:24:11.936Z,6.78
2023-01-26T22:26:39.260Z,6.78
2023-01-26T22:29:06.497Z,6.78
2023-01-26T22:31:33.957Z,6.80
2023-01-26T22:34:01.115Z,6.83
2023-01-26T22:36:29.020Z,6.80
2023-01-26T22:38:56.076Z,6.84
2023-01-26T22:41:25.497Z,6.91
2023-01-26T22:43:54.508Z,6.91
2023-01-26T22:46:23.205Z,6.88
2023-01-26T22:48:50.544Z,6.84
2023-01-26T22:51:22.545Z,6.83
2023-01-26T22:53:51.037Z,6.81
2023-01-26T22:56:17.829Z,6.78
2023-01-26T22:58:57.599Z,6.75
2023-01-26T23:01:27.298Z,6.71
2023-01-26T23:03:55.141Z,6.73
2023-01-26T23:06:22.244Z,6.74
2023-01-26T23:08:49.255Z,6.73
2023-01-26T23:11:20.113Z,6.70
2023-01-26T23:13:48.433Z,6.58
2023-01-26T23:16:15.277Z,6.60
2023-01-26T23:18:42.860Z,6.61
2023-01-26T23:21:10.344Z,6.57
2023-01-26T23:23:39.310Z,6.60
2023-01-26T23:26:06.028Z,6.67
2023-01-26T23:28:35.100Z,6.67
2023-01-26T23:31:02.713Z,6.57
2023-01-26T23:33:32.415Z,6.57
2023-01-26T23:35:59.602Z,6.57
2023-01-26T23:38:28.680Z,6.56
2023-01-26T23:40:55.600Z,6.53
2023-01-26T23:43:22.754Z,6.49
2023-01-26T23:45:50.716Z,6.49
2023-01-26T23:48:18.175Z,6.50
2023-01-26T23:50:45.015Z,6.54
2023-01-26T23:53:12.420Z,6.49
2023-01-26T23:55:43.325Z,6.50
2023-01-26T23:58:11.193Z,6.51
